»·PEaware :: WAT388 KSFO-KSMF

WAT388 :: KSFO-KSMF

FLIGHT INFORMATION

Flight Status: Arrived
Operator:
Walker Air Transport
More flights by this operator :: More flights under this callsign
Pilot: Jacob A. (30091)
Aircraft: CESSNA 182 SKYLANE
(C182)
More flights by this aircraft type
Origin: KSFO San Francisco Intl
United States
Destination: KSMF Sacramento Intl
United States
More flights between these airports :: More routes between these airports
Route:
File this flight plan on PilotEdge
Remarks:
Altitude:
(Current/Filed)
5,500ft
Speed:
(Current/Filed)
145kts
Departed: 22-Feb-21 03:48 PM
Arrived: 22-Feb-21 04:30 PM
Distance/Time
Traveled:
74nm/0:42
Distance/Time
To Go:
Arrived

Flight Plot

Page will automatically refresh every two minutes.

Flight plan parsing failed; only flown route is shown


Map Options




Map Legend


Flown Route
Filed Route
Departure Airport
Arrival Airport
Navaid (VOR, NDB)
Fix

Horizontal Profiles

Position Reports

Time Latitude Longitude Heading Altitude Ground
Speed
22-Feb-21 15:27 37.628320 -122.382694 298 8ft 0kts
22-Feb-21 15:28 37.628320 -122.382695 298 8ft 0kts
22-Feb-21 15:29 37.628319 -122.382695 298 8ft 0kts
22-Feb-21 15:30 37.628319 -122.382695 298 8ft 0kts
22-Feb-21 15:31 37.628320 -122.382695 298 8ft 0kts
22-Feb-21 15:32 37.628320 -122.382695 298 8ft 0kts
22-Feb-21 15:33 37.628319 -122.382695 298 8ft 0kts
22-Feb-21 15:34 37.628320 -122.382694 298 8ft 0kts
22-Feb-21 15:35 37.628222 -122.382464 297 8ft 2kts
22-Feb-21 15:36 37.628187 -122.382383 297 7ft 0kts
22-Feb-21 15:37 37.628188 -122.382383 297 7ft 0kts
22-Feb-21 15:38 37.628187 -122.382383 297 7ft 0kts
22-Feb-21 15:39 37.627652 -122.382158 212 7ft 10kts
22-Feb-21 15:40 37.624995 -122.380753 118 11ft 14kts
22-Feb-21 15:41 37.623089 -122.376220 117 11ft 18kts
22-Feb-21 15:42 37.621622 -122.372703 117 6ft 21kts
22-Feb-21 15:43 37.618315 -122.364838 117 15ft 26kts
22-Feb-21 15:44 37.614829 -122.356819 153 17ft 15kts
22-Feb-21 15:45 37.614409 -122.356784 203 17ft 0kts
22-Feb-21 15:46 37.613834 -122.357568 267 15ft 15kts
22-Feb-21 15:47 37.623090 -122.380368 296 688ft 110kts
22-Feb-21 15:48 37.636429 -122.417966 299 1882ft 138kts
22-Feb-21 15:49 37.652907 -122.466186 299 1980ft 153kts
22-Feb-21 15:50 37.669387 -122.515689 300 1995ft 152kts
22-Feb-21 15:51 37.703125 -122.535193 2 2000ft 137kts
22-Feb-21 15:52 37.740369 -122.526755 18 2000ft 136kts
22-Feb-21 15:53 37.773454 -122.503794 29 1998ft 135kts
22-Feb-21 15:54 37.802628 -122.473398 41 2006ft 138kts
22-Feb-21 15:55 37.828727 -122.439831 42 1995ft 138kts
22-Feb-21 15:56 37.848013 -122.414924 42 1998ft 138kts
22-Feb-21 15:57 37.874285 -122.380868 42 1998ft 133kts
22-Feb-21 15:58 37.899673 -122.347775 42 2238ft 124kts
22-Feb-21 15:59 37.923111 -122.316419 42 2739ft 121kts
22-Feb-21 16:00 37.946387 -122.285153 42 3200ft 120kts
22-Feb-21 16:01 37.969529 -122.254294 43 3707ft 116kts
22-Feb-21 16:02 37.994250 -122.226976 32 4317ft 118kts
22-Feb-21 16:03 38.021246 -122.202699 36 4928ft 120kts
22-Feb-21 16:04 38.047519 -122.175232 38 5438ft 128kts
22-Feb-21 16:05 38.075781 -122.145517 38 5500ft 134kts
22-Feb-21 16:06 38.104347 -122.115576 38 5493ft 132kts
22-Feb-21 16:07 38.133106 -122.085487 38 5497ft 134kts
22-Feb-21 16:08 38.161926 -122.055412 38 5499ft 134kts
22-Feb-21 16:09 38.190761 -122.025405 38 5524ft 134kts
22-Feb-21 16:10 38.219789 -121.995381 38 5530ft 135kts
22-Feb-21 16:11 38.248993 -121.965231 38 5527ft 135kts
22-Feb-21 16:12 38.278210 -121.935129 38 5526ft 135kts
22-Feb-21 16:13 38.307629 -121.904858 38 5527ft 136kts
22-Feb-21 16:14 38.337148 -121.874587 38 5526ft 136kts
22-Feb-21 16:15 38.366849 -121.844341 36 5536ft 136kts
22-Feb-21 16:16 38.398408 -121.817145 33 5537ft 137kts
22-Feb-21 16:17 38.431427 -121.789744 33 5182ft 145kts
22-Feb-21 16:18 38.465498 -121.761596 33 4679ft 146kts
22-Feb-21 16:20 38.499918 -121.733280 33 4177ft 146kts
22-Feb-21 16:21 38.531520 -121.707417 33 3674ft 132kts
22-Feb-21 16:22 38.563414 -121.681324 33 2802ft 143kts
22-Feb-21 16:23 38.597152 -121.653629 33 1696ft 140kts
22-Feb-21 16:24 38.628830 -121.630205 22 1537ft 127kts
22-Feb-21 16:25 38.664557 -121.622977 3 1258ft 136kts
22-Feb-21 16:26 38.695423 -121.622666 1 1038ft 94kts
22-Feb-21 16:27 38.721304 -121.622822 9 1011ft 93kts
22-Feb-21 16:28 38.722386 -121.601642 166 713ft 78kts
22-Feb-21 16:29 38.702997 -121.601158 180 32ft 41kts
22-Feb-21 16:30 38.701294 -121.599350 92 29ft 0kts
22-Feb-21 16:31 38.697783 -121.598624 180 26ft 24kts
22-Feb-21 16:32 38.690417 -121.598744 180 26ft 28kts
22-Feb-21 16:33 38.682326 -121.598886 181 24ft 20kts
22-Feb-21 16:34 38.680887 -121.597460 341 23ft 0kts

Navigation Log

Ident Type
Flight plan parsing failed, navigation log unavailable